SBBU Informações do Aeroporto

Informações da Pista
Pista 14 Comprimento 4925 ft Largura 115 ft
Elevação 0 ft Limite 0 ft Heading 0
Pista 32 Comprimento 4925 ft Largura 115 ft
Elevação 0 ft Limite 0 ft Heading 0
Frequências do Aeroporto
Tipo AFIS Nome RDO Frequência 121.3 MHZ
Tipo APP Nome APP Frequência 121.3 MHZ
Tipo ATIS Nome ATIS Frequência 127.875 MHZ
Navaids do Aeroporto
Tipo NDB Nome Bauru Frequência 380 KHZ
Informações meteorológicas do aeroporto e NOTAM
ADDS - METARS form results

(0005 UTC 26 May 2019)
Data provider http://aviationweather.gov/metar/data/
 
Forecast for: SBBU (BAURU , BR)
Text: TAF SBBU 251500Z 2518/2606 08010KT CAVOK TX23/2518Z TN14/2606Z RMK PDJ
Forecast period: 1800 UTC 25 May 2019 to 0600 UTC 26 May 2019
Forecast type: FROM: standard forecast or significant change
Winds: from the E (80 degrees) at 12 MPH (10 knots; 5.1 m/s)
Visibility: 6 or more miles 10+ km)
Ceiling: unknown
Clouds: missing
Weather: no significant weather forecast for this period